Time;durP1;ratioP1;P1;durP2;ratioP2;P2;SDS_P1;SDS_P2;PMS_P1;PMS_P2;Temp;Humidity;BMP_temperature;BMP_pressure;BME280_temperature;BME280_humidity;BME280_pressure;Samples;Min_cycle;Max_cycle;Signal;HPM_P1;HPM_P2
2022/03/12 00:00:27;;;;;;;8.40;2.60;;;2.50;84.00;;;;;;5043572;28;20637;-81
2022/03/12 00:02:54;;;;;;;5.15;2.00;;;;;;;;;;5040891;28;20046;-82
2022/03/12 00:05:20;;;;;;;7.15;3.10;;;;;;;;;;5040160;28;20391;-80
2022/03/12 00:07:46;;;;;;;4.15;1.90;;;;;;;;;;5045076;28;20032;-77
2022/03/12 00:10:18;;;;;;;4.47;1.75;;;;;;;;;;5043823;28;20034;-80
2022/03/12 00:12:44;;;;;;;4.18;2.08;;;;;;;;;;5039140;28;20078;-79
2022/03/12 00:15:11;;;;;;;5.97;3.45;;;;;;;;;;5041299;28;20033;-78
2022/03/12 00:17:39;;;;;;;5.55;2.75;;;;;;;;;;5035984;28;20117;-83
2022/03/12 00:20:09;;;;;;;7.28;2.65;;;;;;;;;;5044229;28;20397;-84
2022/03/12 00:22:35;;;;;;;5.93;1.70;;;;;;;;;;5040419;28;20037;-80
2022/03/12 00:25:02;;;;;;;5.53;1.90;;;;;;;;;;5047507;28;20017;-83
2022/03/12 00:27:28;;;;;;;3.08;1.60;;;;;;;;;;5040451;28;20489;-81
2022/03/12 00:29:54;;;;;;;6.88;2.08;;;;;;;;;;5041491;28;20032;-81
2022/03/12 00:32:20;;;;;;;3.33;1.95;;;;;;;;;;5040897;28;20482;-79
2022/03/12 00:34:46;;;;;;;3.95;2.22;;;;;;;;;;5045080;28;20172;-80
2022/03/12 00:37:12;;;;;;;5.55;2.25;;;;;;;;;;5039173;28;20037;-78
2022/03/12 00:39:38;;;;;;;2.50;1.85;;;;;;;;;;5045728;28;20044;-81
2022/03/12 00:42:04;;;;;;;10.02;2.10;;;1.60;95.10;;;;;;5041087;28;20464;-80
2022/03/12 00:44:30;;;;;;;3.90;1.63;;;;;;;;;;5032420;28;20025;-80
2022/03/12 00:46:56;;;;;;;3.80;2.15;;;;;;;;;;5038255;28;20094;-79
2022/03/12 00:49:22;;;;;;;1.95;1.33;;;;;;;;;;5043947;28;20109;-78
2022/03/12 00:51:48;;;;;;;2.72;1.80;;;;;;;;;;5039334;28;20449;-82
2022/03/12 00:54:14;;;;;;;5.35;2.70;;;;;;;;;;5038797;28;20110;-78
2022/03/12 00:56:40;;;;;;;3.63;1.70;;;;;;;;;;5038205;28;20029;-81
2022/03/12 00:59:07;;;;;;;6.15;2.15;;;;;;;;;;5042040;28;20571;-77
2022/03/12 01:01:33;;;;;;;6.18;2.58;;;;;;;;;;5043320;28;20028;-81
2022/03/12 01:03:59;;;;;;;2.17;1.20;;;;;;;;;;5037810;28;20071;-83
2022/03/12 01:06:25;;;;;;;5.10;2.08;;;;;;;;;;5034637;28;20045;-79
2022/03/12 01:08:51;;;;;;;3.67;2.35;;;;;;;;;;5042255;28;20623;-78
2022/03/12 01:11:17;;;;;;;2.13;1.25;;;;;;;;;;5041384;28;20456;-76
2022/03/12 01:13:43;;;;;;;8.77;3.47;;;;;;;;;;5039818;28;20115;-79
2022/03/12 01:16:09;;;;;;;7.40;2.53;;;;;;;;;;5046609;28;20028;-83
2022/03/12 01:18:39;;;;;;;4.03;2.58;;;;;;;;;;5043426;28;20078;-78
2022/03/12 01:21:13;;;;;;;7.53;2.38;;;;;;;;;;5047477;28;20037;-80
2022/03/12 01:23:39;;;;;;;5.07;2.30;;;;;;;;;;5041656;28;20432;-79
2022/03/12 01:26:05;;;;;;;4.28;2.65;;;;;;;;;;5042324;28;20053;-79
2022/03/12 01:28:31;;;;;;;4.68;1.52;;;;;;;;;;5041668;28;20109;-84
2022/03/12 01:30:58;;;;;;;15.85;2.22;;;;;;;;;;5044986;28;20025;-81
2022/03/12 01:33:24;;;;;;;4.70;1.98;;;;;;;;;;5045391;28;20025;-85
2022/03/12 01:35:50;;;;;;;1.63;1.13;;;;;;;;;;5038323;28;20502;-80
2022/03/12 01:38:16;;;;;;;4.30;1.95;;;;;;;;;;5040788;28;20060;-79
2022/03/12 01:40:42;;;;;;;3.67;2.05;;;;;;;;;;5045644;28;20051;-80
2022/03/12 01:43:08;;;;;;;5.00;1.58;;;;;;;;;;5040481;28;20045;-79
2022/03/12 01:45:35;;;;;;;7.97;2.70;;;;;;;;;;5041855;28;20060;-77
2022/03/12 01:48:01;;;;;;;3.63;1.55;;;;;;;;;;5042989;28;20044;-78
2022/03/12 01:50:32;;;;;;;9.30;2.50;;;;;;;;;;5038773;28;20032;-83
2022/03/12 01:53:00;;;;;;;5.28;2.78;;;;;;;;;;5036554;28;20024;-79
2022/03/12 01:55:30;;;;;;;6.15;2.60;;;;;;;;;;5044183;28;20031;-80
2022/03/12 01:57:57;;;;;;;5.18;2.33;;;;;;;;;;5037223;28;20385;-83
2022/03/12 02:00:24;;;;;;;2.45;1.65;;;;;;;;;;5040620;28;20322;-79
2022/03/12 02:02:54;;;;;;;3.20;1.58;;;;;;;;;;5041297;28;20029;-80
2022/03/12 02:05:20;;;;;;;3.45;1.77;;;;;;;;;;5038210;28;20025;-79
2022/03/12 02:07:47;;;;;;;5.35;1.73;;;;;;;;;;5039426;28;20178;-83
2022/03/12 02:10:18;;;;;;;2.88;2.03;;;;;;;;;;5045113;28;20059;-83
2022/03/12 02:12:44;;;;;;;2.78;1.40;;;;;;;;;;5036231;28;20064;-78
2022/03/12 02:15:10;;;;;;;2.67;1.42;;;;;;;;;;5039562;28;20508;-79
2022/03/12 02:17:38;;;;;;;3.70;2.03;;;;;;;;;;5041794;28;20033;-80
2022/03/12 02:20:05;;;;;;;3.15;2.03;;;0.70;92.60;;;;;;5042115;28;20123;-80
2022/03/12 02:22:31;;;;;;;4.18;1.63;;;;;;;;;;5036824;28;20068;-78
2022/03/12 02:24:57;;;;;;;6.63;1.60;;;;;;;;;;5041895;28;20056;-77
2022/03/12 02:27:25;;;;;;;4.72;1.83;;;;;;;;;;5040436;28;20071;-79
2022/03/12 02:29:52;;;;;;;2.78;1.52;;;;;;;;;;5040046;28;20047;-78
2022/03/12 02:32:18;;;;;;;5.22;2.78;;;;;;;;;;5045843;28;20657;-80
2022/03/12 02:34:48;;;;;;;3.80;1.88;;;;;;;;;;5041132;28;20516;-78
2022/03/12 02:37:25;;;;;;;3.38;2.25;;;;;;;;;;5038114;28;20087;-81
2022/03/12 02:39:51;;;;;;;3.67;1.35;;;;;;;;;;5033255;28;20536;-78
2022/03/12 02:42:18;;;;;;;3.50;1.63;;;;;;;;;;5041422;28;20033;-80
2022/03/12 02:44:45;;;;;;;5.22;1.75;;;;;;;;;;5039141;28;20460;-83
2022/03/12 02:47:15;;;;;;;2.47;1.85;;;;;;;;;;5047980;28;20471;-77
2022/03/12 02:50:03;;;;;;;8.60;2.42;;;;;;;;;;5037069;28;20013;-83
2022/03/12 02:52:29;;;;;;;2.97;1.80;;;;;;;;;;5038624;28;20063;-77
2022/03/12 02:54:57;;;;;;;3.70;2.28;;;;;;;;;;5046195;28;20033;-78
2022/03/12 02:57:24;;;;;;;4.70;1.90;;;;;;;;;;5042036;28;20032;-78
2022/03/12 02:59:50;;;;;;;3.28;1.80;;;;;;;;;;5041022;28;20083;-80
2022/03/12 03:02:16;;;;;;;4.03;1.55;;;;;;;;;;5046903;28;20061;-78
2022/03/12 03:04:42;;;;;;;5.15;1.67;;;;;;;;;;5046557;28;20029;-77
2022/03/12 03:07:09;;;;;;;4.35;1.85;;;;;;;;;;5043115;28;20037;-77
2022/03/12 03:09:35;;;;;;;4.40;2.08;;;;;;;;;;5046937;28;20036;-78
2022/03/12 03:12:07;;;;;;;3.05;1.90;;;;;;;;;;5041579;28;20516;-80
2022/03/12 03:14:33;;;;;;;2.28;1.55;;;;;;;;;;5045486;28;20123;-78
2022/03/12 03:17:00;;;;;;;3.92;1.85;;;;;;;;;;5041554;28;20041;-79
2022/03/12 03:19:27;;;;;;;4.53;1.90;;;;;;;;;;5042867;28;20087;-79
2022/03/12 03:21:54;;;;;;;10.65;2.08;;;;;;;;;;5046319;28;20037;-82
2022/03/12 03:24:20;;;;;;;3.80;2.45;;;;;;;;;;5039277;28;20025;-79
2022/03/12 03:26:51;;;;;;;4.93;2.22;;;;;;;;;;5042514;28;20116;-80
2022/03/12 03:29:19;;;;;;;4.53;2.22;;;;;;;;;;5041252;28;20024;-80
2022/03/12 03:31:46;;;;;;;4.63;2.20;;;;;;;;;;5042817;28;20152;-80
2022/03/12 03:34:12;;;;;;;2.85;1.20;;;;;;;;;;5043940;28;20029;-79
2022/03/12 03:36:38;;;;;;;10.45;2.40;;;;;;;;;;5041006;28;20024;-79
2022/03/12 03:39:04;;;;;;;4.45;1.65;;;;;;;;;;5049642;28;20033;-83
2022/03/12 03:41:32;;;;;;;2.63;1.25;;;;;;;;;;5046218;28;20032;-81
2022/03/12 03:43:58;;;;;;;5.13;1.60;;;;;;;;;;5040057;28;20041;-80
2022/03/12 03:46:24;;;;;;;5.85;1.83;;;;;;;;;;5041514;28;20033;-81
2022/03/12 03:48:51;;;;;;;5.93;1.95;;;;;;;;;;5041184;28;20532;-81
2022/03/12 03:51:18;;;;;;;4.75;2.17;;;;;;;;;;5036993;28;20025;-83
2022/03/12 03:53:44;;;;;;;6.45;2.30;;;;;;;;;;5050950;28;20519;-79
2022/03/12 03:56:10;;;;;;;3.97;2.10;;;;;;;;;;5041182;28;20171;-80
2022/03/12 03:58:36;;;;;;;4.85;2.05;;;;;;;;;;5038929;28;20052;-79
2022/03/12 04:01:03;;;;;;;5.45;2.20;;;;;;;;;;5049731;28;20048;-80
2022/03/12 04:03:32;;;;;;;4.07;1.45;;;;;;;;;;5048150;28;20549;-79
2022/03/12 04:05:59;;;;;;;3.60;1.95;;;;;;;;;;5047520;28;20027;-83
2022/03/12 04:08:25;;;;;;;4.88;2.15;;;;;;;;;;5054094;28;20024;-80
2022/03/12 04:10:51;;;;;;;4.57;1.90;;;;;;;;;;5044729;28;20033;-78
2022/03/12 04:13:18;;;;;;;5.63;2.38;;;;;;;;;;5036640;28;20047;-80
2022/03/12 04:15:44;;;;;;;3.83;1.73;;;;;;;;;;5046830;28;20017;-82
2022/03/12 04:18:10;;;;;;;3.88;1.92;;;;;;;;;;5043479;28;20036;-77
2022/03/12 04:20:38;;;;;;;3.65;2.13;;;;;;;;;;5044803;28;20048;-78
2022/03/12 04:23:04;;;;;;;3.88;1.95;;;;;;;;;;5042464;28;20569;-78
2022/03/12 04:25:31;;;;;;;1.77;1.63;;;;;;;;;;5043452;28;20116;-77
2022/03/12 04:27:57;;;;;;;5.47;3.15;;;;;;;;;;5047995;28;20060;-77
2022/03/12 04:30:23;;;;;;;6.03;2.08;;;;;;;;;;5044489;28;20029;-80
2022/03/12 04:32:49;;;;;;;4.38;1.92;;;;;;;;;;5043436;28;20021;-79
2022/03/12 04:35:17;;;;;;;3.55;2.35;;;;;;;;;;5037452;28;20485;-79
2022/03/12 04:37:43;;;;;;;2.40;1.65;;;;;;;;;;5046379;28;20580;-79
2022/03/12 04:40:12;;;;;;;3.42;1.80;;;;;;;;;;5043821;28;20029;-79
2022/03/12 04:42:43;;;;;;;4.28;1.90;;;;;;;;;;5046577;28;20076;-79
2022/03/12 04:45:10;;;;;;;1.95;1.75;;;;;;;;;;5048509;28;20036;-79
2022/03/12 04:47:36;;;;;;;3.22;1.40;;;;;;;;;;5046752;28;20125;-79
2022/03/12 04:50:05;;;;;;;3.65;2.20;;;;;;;;;;5043338;28;20025;-77
2022/03/12 04:52:31;;;;;;;3.03;1.33;;;;;;;;;;5040241;28;20033;-81
2022/03/12 04:54:58;;;;;;;3.97;1.83;;;;;;;;;;5044308;28;20164;-79
2022/03/12 04:57:24;;;;;;;2.63;1.48;;;;;;;;;;5039743;28;20035;-84
2022/03/12 04:59:50;;;;;;;2.90;2.25;;;;;;;;;;5046940;28;20089;-78
2022/03/12 05:02:16;;;;;;;2.20;1.08;;;;;;;;;;5042835;28;20034;-82
2022/03/12 05:04:42;;;;;;;9.07;3.17;;;;;;;;;;5038009;28;20036;-80
2022/03/12 05:07:11;;;;;;;4.68;2.30;;;;;;;;;;5040319;28;20025;-77
2022/03/12 05:09:37;;;;;;;3.60;1.73;;;;;;;;;;5044891;28;20113;-80
2022/03/12 05:12:05;;;;;;;3.88;2.00;;;;;;;;;;5042433;28;20057;-78
2022/03/12 05:14:32;;;;;;;4.40;1.73;;;;;;;;;;5041726;28;20120;-77
2022/03/12 05:16:59;;;;;;;3.85;1.95;;;;;;;;;;5040585;28;20029;-81
2022/03/12 05:19:25;;;;;;;4.25;1.80;;;;;;;;;;5039720;28;20026;-79
2022/03/12 05:21:51;;;;;;;5.47;2.35;;;;;;;;;;5035474;28;20444;-78
2022/03/12 05:24:17;;;;;;;5.68;1.95;;;;;;;;;;5047964;28;20031;-78
2022/03/12 05:26:44;;;;;;;4.35;1.83;;;;;;;;;;5042475;28;20025;-80
2022/03/12 05:29:10;;;;;;;5.53;1.92;;;;;;;;;;5044370;28;20037;-77
2022/03/12 05:31:36;;;;;;;6.32;3.10;;;;;;;;;;5038653;28;20025;-78
2022/03/12 05:34:02;;;;;;;6.85;2.92;;;;;;;;;;5041838;28;20042;-81
2022/03/12 05:36:28;;;;;;;6.15;2.85;;;;;;;;;;5042469;28;20026;-77
2022/03/12 05:38:54;;;;;;;6.00;3.55;;;;;;;;;;5043049;28;20400;-78
2022/03/12 05:41:20;;;;;;;8.40;3.20;;;;;;;;;;5041202;28;20055;-79
2022/03/12 05:43:46;;;;;;;8.18;3.20;;;;;;;;;;5036628;28;20069;-78
2022/03/12 05:46:17;;;;;;;7.13;3.40;;;;;;;;;;5043367;28;20033;-77
2022/03/12 05:48:47;;;;;;;8.82;4.82;;;;;;;;;;5041406;28;20545;-80
2022/03/12 05:51:13;;;;;;;6.20;4.15;;;;;;;;;;5037717;28;20039;-78
2022/03/12 05:53:39;;;;;;;7.00;3.38;;;;;;;;;;5028644;28;20060;-80
2022/03/12 05:56:05;;;;;;;6.50;3.13;;;;;;;;;;5039791;28;20036;-81
2022/03/12 05:58:39;;;;;;;6.15;3.13;;;;;;;;;;5034540;28;20509;-79
2022/03/12 06:01:06;;;;;;;12.07;5.53;;;;;;;;;;5038555;28;20033;-78
2022/03/12 06:03:32;;;;;;;5.47;2.97;;;;;;;;;;5039591;28;20111;-79
2022/03/12 06:05:59;;;;;;;6.15;3.50;;;;;;;;;;5039885;28;20105;-79
2022/03/12 06:08:26;;;;;;;7.07;2.58;;;;;;;;;;5043314;28;20036;-76
2022/03/12 06:10:55;;;;;;;5.63;2.95;;;;;;;;;;5038845;28;20064;-80
2022/03/12 06:13:25;;;;;;;6.57;2.53;;;;;;;;;;5039117;28;20067;-81
2022/03/12 06:15:58;;;;;;;2.97;1.98;;;;;;;;;;5033261;28;20070;-80
2022/03/12 06:18:33;;;;;;;7.13;3.25;;;;;;;;;;5037736;28;20041;-77
2022/03/12 06:20:59;;;;;;;2.30;1.67;;;;;;;;;;5044117;28;20033;-78
2022/03/12 06:23:25;;;;;;;6.68;2.67;;;;;;;;;;5039536;28;20044;-80
2022/03/12 06:25:52;;;;;;;5.72;2.40;;;;;;;;;;5031896;28;20040;-85
2022/03/12 06:28:19;;;;;;;6.63;2.60;;;;;;;;;;5032082;28;20542;-79
2022/03/12 06:30:47;;;;;;;12.30;2.17;;;;;;;;;;5034424;28;20028;-79
2022/03/12 06:33:15;;;;;;;5.35;1.90;;;;;;;;;;5034872;28;20037;-78
2022/03/12 06:35:42;;;;;;;3.42;2.63;;;;;;;;;;5027608;28;20059;-78
2022/03/12 06:38:10;;;;;;;3.20;2.08;;;;;;;;;;5038365;28;20039;-78
2022/03/12 06:40:36;;;;;;;5.55;2.15;;;;;;;;;;5036879;28;20037;-78
2022/03/12 06:43:09;;;;;;;9.05;2.53;;;;;;;;;;5033285;28;20048;-77
2022/03/12 06:45:35;;;;;;;6.40;2.90;;;;;;;;;;5037024;28;20152;-77
2022/03/12 06:48:02;;;;;;;4.95;2.20;;;;;;;;;;5041265;28;20029;-79
2022/03/12 06:50:28;;;;;;;11.23;3.22;;;;;;;;;;5038930;28;20043;-80
2022/03/12 06:52:56;;;;;;;6.40;2.05;;;;;;;;;;5036894;28;20022;-79
2022/03/12 06:55:24;;;;;;;4.82;2.13;;;2.60;90.50;;;;;;5037739;28;20043;-79
2022/03/12 06:57:51;;;;;;;14.18;3.15;;;;;;;;;;5038848;28;20444;-77
2022/03/12 07:00:18;;;;;;;6.10;3.30;;;;;;;;;;5039666;28;20030;-79
2022/03/12 07:02:44;;;;;;;6.15;2.47;;;;;;;;;;5043735;28;20455;-78
2022/03/12 07:05:11;;;;;;;7.22;2.60;;;;;;;;;;5041661;28;20029;-78
2022/03/12 07:07:37;;;;;;;7.05;2.20;;;;;;;;;;5039614;28;20025;-81
2022/03/12 07:10:05;;;;;;;8.20;1.45;;;;;;;;;;5037989;28;20041;-80
2022/03/12 07:12:31;;;;;;;7.50;2.13;;;;;;;;;;5033949;28;20384;-79
2022/03/12 07:14:57;;;;;;;3.97;2.08;;;;;;;;;;5032664;28;20071;-78
2022/03/12 07:17:23;;;;;;;4.28;2.03;;;;;;;;;;5044813;28;20029;-78
2022/03/12 07:19:50;;;;;;;5.50;1.73;;;;;;;;;;5031525;28;20112;-78
2022/03/12 07:22:16;;;;;;;4.00;2.25;;;;;;;;;;5035283;28;20754;-79
2022/03/12 07:24:42;;;;;;;4.30;2.22;;;;;;;;;;5040472;28;20021;-81
2022/03/12 07:27:08;;;;;;;4.20;2.17;;;;;;;;;;5037615;28;20029;-80
2022/03/12 07:29:35;;;;;;;5.75;2.15;;;;;;;;;;5038308;28;20504;-82
2022/03/12 07:32:01;;;;;;;4.75;2.22;;;;;;;;;;5044181;28;20497;-78
2022/03/12 07:34:27;;;;;;;4.10;2.05;;;;;;;;;;5040782;28;20024;-79
2022/03/12 07:36:53;;;;;;;8.55;2.92;;;;;;;;;;5045923;28;20024;-77
2022/03/12 07:39:20;;;;;;;5.85;2.67;;;;;;;;;;5037623;28;20029;-79
2022/03/12 07:41:46;;;;;;;6.10;1.90;;;;;;;;;;5036136;28;20394;-78
2022/03/12 07:44:12;;;;;;;5.28;2.13;;;;;;;;;;5032634;28;20401;-82
2022/03/12 07:46:38;;;;;;;5.63;2.00;;;;;;;;;;5042420;28;20021;-78
2022/03/12 07:49:04;;;;;;;6.50;2.33;;;;;;;;;;5044326;28;20059;-78
2022/03/12 07:51:31;;;;;;;4.55;2.15;;;;;;;;;;5042592;28;20021;-79
2022/03/12 07:53:58;;;;;;;2.90;1.50;;;;;;;;;;5043896;28;20032;-79
2022/03/12 07:56:25;;;;;;;4.85;1.95;;;;;;;;;;5045179;28;20478;-76
2022/03/12 07:58:51;;;;;;;7.13;2.10;;;;;;;;;;5043601;28;20040;-77
2022/03/12 08:01:16;;;;;;;5.00;2.45;;;;;;;;;;5044251;28;20377;-82
2022/03/12 08:03:42;;;;;;;4.32;1.98;;;;;;;;;;5046219;28;20041;-78
2022/03/12 08:06:09;;;;;;;6.57;2.33;;;;;;;;;;5045557;28;20381;-80
2022/03/12 08:08:36;;;;;;;5.47;2.53;;;;;;;;;;5040183;28;20124;-78
2022/03/12 08:13:46;;;;;;;10.20;2.85;;;;;;;;;;5035542;28;20052;-82
2022/03/12 08:16:13;;;;;;;5.72;2.85;;;;;;;;;;5037431;28;20045;-79
2022/03/12 08:18:39;;;;;;;3.95;2.28;;;;;;;;;;5036774;28;20040;-80
2022/03/12 08:21:05;;;;;;;3.33;2.00;;;;;;;;;;5045418;28;20033;-80
2022/03/12 08:23:31;;;;;;;7.03;2.85;;;;;;;;;;5039087;28;20512;-83
2022/03/12 08:25:58;;;;;;;2.33;1.65;;;;;;;;;;5045719;28;20128;-84
2022/03/12 08:28:24;;;;;;;4.68;2.42;;;;;;;;;;5042691;28;20140;-82
2022/03/12 08:30:50;;;;;;;3.80;2.22;;;;;;;;;;5042780;28;20072;-83
2022/03/12 08:33:17;;;;;;;6.10;1.90;;;;;;;;;;5029949;28;20124;-84
2022/03/12 08:35:43;;;;;;;6.50;2.95;;;;;;;;;;5036701;28;20389;-82
2022/03/12 08:38:09;;;;;;;4.22;2.13;;;;;;;;;;5043732;28;20031;-79
2022/03/12 08:40:35;;;;;;;5.90;2.10;;;;;;;;;;5043937;28;20070;-79
2022/03/12 08:43:01;;;;;;;4.97;2.00;;;;;;;;;;5043670;28;20094;-81
2022/03/12 08:45:27;;;;;;;4.95;2.85;;;;;;;;;;5045519;28;20154;-80
2022/03/12 08:47:53;;;;;;;8.43;3.20;;;;;;;;;;5047477;28;20637;-82
2022/03/12 08:50:19;;;;;;;4.50;1.85;;;;;;;;;;5048109;28;20032;-82
2022/03/12 08:52:46;;;;;;;4.47;2.20;;;;;;;;;;5045978;28;20028;-78
2022/03/12 08:55:12;;;;;;;5.18;2.65;;;;;;;;;;5040450;28;20032;-81
2022/03/12 08:57:39;;;;;;;4.85;2.20;;;;;;;;;;5041144;28;20032;-81
2022/03/12 09:00:06;;;;;;;7.28;3.55;;;;;;;;;;5040134;28;21003;-80
2022/03/12 09:02:36;;;;;;;9.10;2.10;;;;;;;;;;5042602;28;20080;-82
2022/03/12 09:05:04;;;;;;;3.90;2.47;;;;;;;;;;5032099;28;20126;-82
2022/03/12 09:07:30;;;;;;;6.90;2.83;;;;;;;;;;5039280;28;20103;-79
2022/03/12 09:09:56;;;;;;;3.75;2.03;;;;;;;;;;5033711;28;20040;-80
2022/03/12 09:12:22;;;;;;;4.93;2.08;;;;;;;;;;5039648;28;20039;-79
2022/03/12 09:14:49;;;;;;;6.20;2.10;;;;;;;;;;5046335;28;20021;-80
2022/03/12 09:17:15;;;;;;;7.07;3.28;;;;;;;;;;5048064;28;20517;-77
2022/03/12 09:19:41;;;;;;;6.95;2.13;;;;;;;;;;5047338;28;20029;-77
2022/03/12 09:22:07;;;;;;;6.60;2.80;;;;;;;;;;5037923;28;20125;-78
2022/03/12 09:24:34;;;;;;;5.38;2.80;;;;;;;;;;5041456;28;20025;-79
2022/03/12 09:27:00;;;;;;;6.10;2.70;;;;;;;;;;5037693;28;20120;-79
2022/03/12 09:29:26;;;;;;;5.88;3.03;;;;;;;;;;5041844;28;20089;-80
2022/03/12 09:31:52;;;;;;;5.88;2.78;;;;;;;;;;5047500;28;20021;-80
2022/03/12 09:34:18;;;;;;;9.77;3.40;;;;;;;;;;5042236;28;20028;-80
2022/03/12 09:36:44;;;;;;;9.15;3.33;;;;;;;;;;5044399;28;20033;-78
2022/03/12 09:39:10;;;;;;;8.68;3.08;;;;;;;;;;5048118;28;20025;-77
2022/03/12 09:41:38;;;;;;;6.53;3.25;;;;;;;;;;5040388;28;20039;-81
2022/03/12 09:44:05;;;;;;;5.50;2.40;;;;;;;;;;5036574;28;20036;-83
2022/03/12 09:46:31;;;;;;;8.73;2.65;;;;;;;;;;5040102;28;20036;-80
2022/03/12 09:48:57;;;;;;;5.88;2.95;;;;;;;;;;5035088;28;20032;-79
2022/03/12 09:51:25;;;;;;;10.15;3.83;;;;;;;;;;5032310;28;20036;-81
2022/03/12 09:53:51;;;;;;;8.77;4.15;;;;;;;;;;5036149;28;20032;-80
2022/03/12 09:56:17;;;;;;;12.52;5.00;;;;;;;;;;5053246;28;20029;-81
2022/03/12 09:58:43;;;;;;;6.95;3.42;;;;;;;;;;5035834;28;20032;-82
2022/03/12 10:01:12;;;;;;;9.57;3.08;;;9.20;62.80;;;;;;5038765;28;20025;-83
2022/03/12 10:03:38;;;;;;;9.27;3.25;;;;;;;;;;5029023;28;20499;-78
2022/03/12 10:06:05;;;;;;;6.38;2.97;;;9.50;88.20;;;;;;5037495;28;20029;-78
2022/03/12 10:08:31;;;;;;;8.45;2.45;;;;;;;;;;5038663;28;20029;-76
2022/03/12 10:10:58;;;;;;;5.90;2.65;;;;;;;;;;5038518;28;20036;-76
2022/03/12 10:13:23;;;;;;;8.43;3.17;;;;;;;;;;5039756;28;20017;-75
2022/03/12 10:15:50;;;;;;;8.25;3.33;;;;;;;;;;5040719;28;20362;-79
2022/03/12 10:18:16;;;;;;;6.72;3.20;;;;;;;;;;5041887;28;20039;-76
2022/03/12 10:20:42;;;;;;;7.45;3.05;;;;;;;;;;5045979;28;20025;-76
2022/03/12 10:23:09;;;;;;;9.82;3.08;;;;;;;;;;5041303;28;20052;-75
2022/03/12 10:25:36;;;;;;;8.43;3.05;;;;;;;;;;5040721;28;20439;-80
2022/03/12 10:28:02;;;;;;;6.97;2.75;;;;;;;;;;5041964;28;20087;-79
2022/03/12 10:30:28;;;;;;;6.85;2.75;;;;;;;;;;5037642;28;20114;-78
2022/03/12 10:32:55;;;;;;;8.45;2.58;;;;;;;;;;5038805;28;20486;-79
2022/03/12 10:35:22;;;;;;;10.27;3.10;;;;;;;;;;5040780;28;20021;-78
2022/03/12 10:37:49;;;;;;;7.90;3.67;;;;;;;;;;5026801;28;20041;-78
2022/03/12 10:40:19;;;;;;;6.15;2.95;;;;;;;;;;5037411;28;20044;-76
2022/03/12 10:42:47;;;;;;;5.60;2.60;;;;;;;;;;5033548;28;20037;-81
2022/03/12 10:45:14;;;;;;;9.32;3.55;;;;;;;;;;5050988;28;20093;-78
2022/03/12 10:47:41;;;;;;;6.97;2.80;;;;;;;;;;5049102;28;20032;-78
2022/03/12 10:50:10;;;;;;;5.07;2.70;;;;;;;;;;5040326;28;20413;-77
2022/03/12 10:52:41;;;;;;;11.48;3.67;;;;;;;;;;5036865;28;20435;-78
2022/03/12 10:55:11;;;;;;;9.00;4.05;;;;;;;;;;5039027;28;20043;-78
2022/03/12 10:57:37;;;;;;;7.47;3.67;;;;;;;;;;5040582;28;20029;-78
2022/03/12 11:00:09;;;;;;;7.97;3.35;;;;;;;;;;5033633;28;21394;-79
2022/03/12 11:02:35;;;;;;;5.53;2.28;;;;;;;;;;5046395;28;20448;-79
2022/03/12 11:05:04;;;;;;;5.35;2.30;;;11.50;64.90;;;;;;5045318;28;20018;-81
2022/03/12 11:07:30;;;;;;;6.35;3.28;;;;;;;;;;5042355;28;20029;-79
2022/03/12 11:09:57;;;;;;;8.07;3.17;;;;;;;;;;5045842;28;20035;-81
2022/03/12 11:12:37;;;;;;;7.53;3.22;;;11.20;64.20;;;;;;5047193;28;20033;-78
2022/03/12 11:15:16;;;;;;;6.38;3.38;;;;;;;;;;5037345;28;20394;-80
2022/03/12 11:17:44;;;;;;;7.63;2.78;;;;;;;;;;5044745;28;20040;-79
2022/03/12 11:20:20;;;;;;;10.07;3.33;;;;;;;;;;5044990;28;20040;-79
2022/03/12 11:22:51;;;;;;;5.28;2.75;;;;;;;;;;5045185;28;20037;-80
2022/03/12 11:25:23;;;;;;;11.48;3.15;;;11.40;62.40;;;;;;5047482;28;20366;-80
2022/03/12 11:27:50;;;;;;;7.93;3.08;;;;;;;;;;5041654;28;20018;-80
2022/03/12 11:30:20;;;;;;;7.72;3.55;;;;;;;;;;5045654;28;20044;-79
2022/03/12 11:32:47;;;;;;;8.30;3.08;;;11.80;73.20;;;;;;5047550;28;20037;-78
2022/03/12 11:35:18;;;;;;;9.50;3.38;;;11.20;63.60;;;;;;5042840;28;20025;-81
2022/03/12 11:37:43;;;;;;;5.85;3.58;;;12.10;62.30;;;;;;5045890;28;20037;-79
2022/03/12 11:40:14;;;;;;;11.45;3.53;;;;;;;;;;5042440;28;20037;-80
2022/03/12 11:42:41;;;;;;;9.20;3.58;;;;;;;;;;5039365;28;20048;-79
2022/03/12 11:45:15;;;;;;;8.60;3.78;;;;;;;;;;5045057;28;20033;-80
2022/03/12 11:47:41;;;;;;;9.00;2.92;;;;;;;;;;5048350;28;22855;-80
2022/03/12 11:50:24;;;;;;;7.72;3.13;;;;;;;;;;5045324;28;20029;-78
2022/03/12 11:52:52;;;;;;;5.38;3.13;;;;;;;;;;5042304;28;20040;-78
2022/03/12 11:55:20;;;;;;;7.78;4.00;;;;;;;;;;5050695;28;20029;-79
2022/03/12 11:57:47;;;;;;;7.07;2.60;;;;;;;;;;5041889;28;20413;-77
2022/03/12 12:00:19;;;;;;;6.22;4.07;;;;;;;;;;5043667;28;20040;-83
2022/03/12 12:02:46;;;;;;;11.52;4.03;;;;;;;;;;5042526;28;20056;-80
2022/03/12 12:05:12;;;;;;;8.60;3.65;;;;;;;;;;5046170;28;20033;-81
2022/03/12 12:07:41;;;;;;;6.22;3.40;;;;;;;;;;5041250;28;20033;-83
2022/03/12 12:10:07;;;;;;;7.53;2.70;;;;;;;;;;5047194;28;20056;-82
2022/03/12 12:12:35;;;;;;;7.30;3.60;;;;;;;;;;5041035;28;20448;-80
2022/03/12 12:15:02;;;;;;;6.50;3.17;;;;;;;;;;5048037;28;20029;-80
2022/03/12 12:17:28;;;;;;;7.85;3.63;;;;;;;;;;5047831;28;20405;-80
2022/03/12 12:19:54;;;;;;;7.38;3.72;;;13.10;87.50;;;;;;5046271;28;20071;-79
2022/03/12 12:22:20;;;;;;;6.45;2.97;;;;;;;;;;5042902;28;21958;-79
2022/03/12 12:24:46;;;;;;;7.93;3.40;;;;;;;;;;5043642;28;20028;-77
2022/03/12 12:27:13;;;;;;;12.40;2.97;;;;;;;;;;5041636;28;20116;-80
2022/03/12 12:29:54;;;;;;;7.80;3.50;;;;;;;;;;5043920;28;20424;-79
2022/03/12 12:32:21;;;;;;;7.38;3.17;;;;;;;;;;5046722;28;20459;-78
2022/03/12 12:35:10;;;;;;;8.23;2.90;;;;;;;;;;5048425;28;20029;-78
2022/03/12 12:37:40;;;;;;;11.43;3.72;;;;;;;;;;5027267;28;20677;-80
2022/03/12 12:40:27;;;;;;;8.60;3.33;;;;;;;;;;5043385;28;20032;-80
2022/03/12 12:42:55;;;;;;;6.05;2.90;;;;;;;;;;5038616;28;20044;-81
2022/03/12 12:45:23;;;;;;;7.25;3.42;;;;;;;;;;5043068;28;20079;-79
2022/03/12 12:48:08;;;;;;;8.57;3.72;;;;;;;;;;5042329;28;20118;-86
2022/03/12 12:50:34;;;;;;;7.78;3.05;;;13.30;66.00;;;;;;5041394;28;20060;-82
2022/03/12 12:53:12;;;;;;;5.18;3.17;;;;;;;;;;5039092;28;20026;-85
2022/03/12 12:55:38;;;;;;;8.32;3.63;;;;;;;;;;5041462;28;20516;-86
2022/03/12 12:58:05;;;;;;;6.63;2.83;;;;;;;;;;5040417;28;20091;-87
2022/03/12 13:00:32;;;;;;;5.60;3.10;;;13.60;84.70;;;;;;5050229;28;20020;-80
2022/03/12 13:02:59;;;;;;;9.88;3.42;;;;;;;;;;5047773;28;20036;-83
2022/03/12 13:06:02;;;;;;;8.25;3.38;;;;;;;;;;5046869;28;20028;-81
2022/03/12 13:08:45;;;;;;;6.30;3.10;;;;;;;;;;5000262;28;20526;-80
2022/03/12 13:11:31;;;;;;;7.93;2.78;;;13.30;64.80;;;;;;5041293;28;20041;-85
2022/03/12 13:14:00;;;;;;;6.57;2.80;;;;;;;;;;5040496;28;20041;-82
2022/03/12 13:16:26;;;;;;;6.07;2.97;;;13.00;62.80;;;;;;5048151;28;20045;-85
2022/03/12 13:18:52;;;;;;;6.45;3.28;;;;;;;;;;5045909;28;20436;-83
2022/03/12 13:21:26;;;;;;;6.90;3.28;;;;;;;;;;5044264;28;20036;-82
2022/03/12 13:23:52;;;;;;;8.20;3.25;;;;;;;;;;5034071;28;20141;-83
2022/03/12 13:26:18;;;;;;;6.30;3.25;;;;;;;;;;5040293;28;20051;-81
2022/03/12 13:28:47;;;;;;;6.85;3.47;;;;;;;;;;5040927;28;20025;-85
2022/03/12 13:31:13;;;;;;;10.25;4.32;;;;;;;;;;5045301;28;20033;-84
2022/03/12 13:33:39;;;;;;;7.90;3.38;;;;;;;;;;5044493;28;20027;-81
2022/03/12 13:36:05;;;;;;;9.80;3.25;;;;;;;;;;5042419;28;20105;-82
2022/03/12 13:38:31;;;;;;;7.63;3.33;;;;;;;;;;5048036;28;20437;-83
2022/03/12 13:40:58;;;;;;;6.50;2.80;;;;;;;;;;5048689;28;20036;-81
2022/03/12 13:43:24;;;;;;;7.80;3.47;;;;;;;;;;5043713;28;20040;-80
2022/03/12 13:45:59;;;;;;;7.70;3.00;;;;;;;;;;5048798;28;20029;-82
2022/03/12 13:48:28;;;;;;;4.85;2.83;;;;;;;;;;5049040;28;20029;-83
2022/03/12 13:50:57;;;;;;;9.27;3.83;;;;;;;;;;5048070;28;20414;-81
2022/03/12 13:53:29;;;;;;;8.18;2.70;;;;;;;;;;5046587;28;20032;-80
2022/03/12 13:56:05;;;;;;;10.57;2.83;;;;;;;;;;5049595;28;20032;-81
2022/03/12 13:58:31;;;;;;;6.60;3.03;;;;;;;;;;5044833;28;20029;-82
2022/03/12 14:01:00;;;;;;;6.05;2.78;;;;;;;;;;5048845;28;20047;-81
2022/03/12 14:03:29;;;;;;;12.15;3.25;;;;;;;;;;5048609;28;20194;-82
2022/03/12 14:05:56;;;;;;;7.55;3.08;;;;;;;;;;5043347;28;20036;-81
2022/03/12 14:08:24;;;;;;;10.68;3.50;;;;;;;;;;5042846;28;20057;-83
2022/03/12 14:10:52;;;;;;;11.23;5.03;;;;;;;;;;5039035;28;20048;-85
2022/03/12 14:13:20;;;;;;;9.98;4.18;;;;;;;;;;5037962;28;20531;-87
2022/03/12 14:15:46;;;;;;;6.20;2.97;;;;;;;;;;5031491;28;20126;-80
2022/03/12 14:18:18;;;;;;;7.53;3.08;;;;;;;;;;5039736;28;20028;-82
2022/03/12 14:20:46;;;;;;;7.13;2.75;;;;;;;;;;5038570;28;20457;-80
2022/03/12 14:23:12;;;;;;;7.75;2.70;;;;;;;;;;5037698;28;20048;-82
2022/03/12 14:25:38;;;;;;;8.30;2.83;;;13.60;90.10;;;;;;5036057;28;21840;-82
2022/03/12 14:28:05;;;;;;;9.35;3.97;;;;;;;;;;5036530;28;20096;-80
2022/03/12 14:30:31;;;;;;;6.65;2.83;;;;;;;;;;5045662;28;20036;-83
2022/03/12 14:32:57;;;;;;;9.63;3.30;;;;;;;;;;5048445;28;20412;-82
2022/03/12 14:35:25;;;;;;;9.10;3.13;;;;;;;;;;5042962;28;20022;-81
2022/03/12 14:37:52;;;;;;;14.30;3.17;;;;;;;;;;5038948;28;20033;-81
2022/03/12 14:40:21;;;;;;;7.00;2.55;;;;;;;;;;5044940;28;20021;-81